Time;durP1;ratioP1;P1;durP2;ratioP2;P2;SDS_P1;SDS_P2;PMS_P1;PMS_P2;Temp;Humidity;BMP_temperature;BMP_pressure;BME280_temperature;BME280_humidity;BME280_pressure;Samples;Min_cycle;Max_cycle;Signal;HPM_P1;HPM_P2
2022/06/25 00:01:29;;;;;;;7.47;5.72;;;18.40;99.90;;;;;;4993013;28;20240;-78
2022/06/25 00:03:56;;;;;;;7.25;6.00;;;18.20;99.90;;;;;;4993795;28;20324;-78
2022/06/25 00:06:23;;;;;;;9.43;6.38;;;17.90;99.90;;;;;;4993941;28;20872;-78
2022/06/25 00:08:51;;;;;;;7.68;5.85;;;17.90;99.90;;;;;;4993913;28;20276;-78
2022/06/25 00:14:06;;;;;;;8.40;7.07;;;17.70;99.90;;;;;;4989243;28;20199;-78
2022/06/25 00:16:35;;;;;;;8.10;6.57;;;17.80;99.90;;;;;;4993271;28;20211;-78
2022/06/25 00:19:03;;;;;;;7.13;6.47;;;17.70;99.90;;;;;;4991713;28;20262;-78
2022/06/25 00:21:31;;;;;;;8.32;6.38;;;17.70;99.90;;;;;;4982752;28;20312;-78
2022/06/25 00:23:58;;;;;;;6.40;5.43;;;18.00;99.90;;;;;;4981726;28;20240;-78
2022/06/25 00:26:27;;;;;;;6.93;6.22;;;18.00;99.90;;;;;;4982892;28;20256;-78
2022/06/25 00:28:54;;;;;;;6.72;6.07;;;18.10;99.90;;;;;;4984824;28;20205;-78
2022/06/25 00:31:22;;;;;;;7.30;5.90;;;17.90;99.90;;;;;;4992147;28;20293;-78
2022/06/25 00:33:51;;;;;;;7.22;6.25;;;17.80;99.90;;;;;;4992867;28;20300;-77
2022/06/25 00:36:18;;;;;;;6.72;6.05;;;17.90;99.90;;;;;;4992652;28;20887;-78
2022/06/25 00:38:45;;;;;;;6.40;5.80;;;18.00;99.90;;;;;;4991943;28;20240;-78
2022/06/25 00:41:13;;;;;;;8.65;6.78;;;18.10;99.90;;;;;;4987741;28;20202;-78
2022/06/25 00:43:40;;;;;;;8.68;6.97;;;18.20;99.90;;;;;;4976297;28;20636;-78
2022/06/25 00:46:07;;;;;;;9.55;7.40;;;18.20;99.90;;;;;;4992656;28;20212;-77
2022/06/25 00:48:35;;;;;;;7.82;6.53;;;18.20;99.90;;;;;;4993106;28;20284;-78
2022/06/25 00:51:08;;;;;;;7.85;6.22;;;18.10;99.90;;;;;;4992229;28;20236;-78
2022/06/25 00:53:35;;;;;;;7.97;6.15;;;18.10;99.90;;;;;;4975678;28;20284;-78
2022/06/25 00:56:06;;;;;;;7.85;6.30;;;18.30;99.90;;;;;;4992145;28;20621;-78
2022/06/25 00:58:34;;;;;;;8.63;5.68;;;18.30;99.90;;;;;;4992345;28;20201;-78
2022/06/25 01:01:03;;;;;;;9.05;6.47;;;18.30;99.90;;;;;;4991964;28;20201;-78
2022/06/25 01:03:31;;;;;;;9.55;6.25;;;18.30;99.90;;;;;;4992196;28;20328;-78
2022/06/25 01:05:58;;;;;;;7.75;6.60;;;18.30;99.90;;;;;;4992490;28;20268;-78
2022/06/25 01:08:26;;;;;;;9.30;5.82;;;18.30;99.90;;;;;;4992509;28;20205;-78
2022/06/25 01:10:54;;;;;;;7.72;5.28;;;18.40;99.90;;;;;;4986066;28;20612;-78
2022/06/25 01:13:21;;;;;;;8.68;6.03;;;18.40;99.90;;;;;;4983485;28;20566;-78
2022/06/25 01:15:48;;;;;;;6.80;5.93;;;18.30;99.90;;;;;;4992407;28;20764;-78
2022/06/25 01:18:15;;;;;;;7.47;6.60;;;18.20;99.90;;;;;;4993148;28;20213;-78
2022/06/25 01:20:43;;;;;;;8.13;6.43;;;18.10;99.90;;;;;;4991284;28;20603;-78
2022/06/25 01:23:12;;;;;;;9.38;6.28;;;18.00;99.90;;;;;;4991942;28;20221;-78
2022/06/25 01:25:41;;;;;;;6.97;6.28;;;18.10;99.90;;;;;;4992405;28;20232;-78
2022/06/25 01:28:09;;;;;;;9.23;5.82;;;17.90;99.90;;;;;;4992036;28;20288;-78
2022/06/25 01:30:37;;;;;;;6.80;5.70;;;18.00;99.90;;;;;;4991834;28;20714;-78
2022/06/25 01:33:08;;;;;;;8.63;6.70;;;18.00;99.90;;;;;;4987286;28;20212;-78
2022/06/25 01:35:35;;;;;;;6.82;5.97;;;17.90;99.90;;;;;;4992224;28;20209;-78
2022/06/25 01:38:03;;;;;;;7.53;6.15;;;17.90;99.90;;;;;;4973018;28;20645;-78
2022/06/25 01:40:33;;;;;;;8.77;6.50;;;17.70;99.90;;;;;;4971902;28;20201;-78
2022/06/25 01:43:00;;;;;;;10.75;6.50;;;17.70;99.90;;;;;;4981473;28;20224;-78
2022/06/25 01:45:30;;;;;;;15.27;7.07;;;17.60;99.90;;;;;;4991876;28;20636;-78
2022/06/25 01:47:57;;;;;;;8.90;6.60;;;17.70;99.90;;;;;;4992645;28;20236;-78
2022/06/25 01:50:24;;;;;;;9.55;6.60;;;17.70;99.90;;;;;;4991736;28;20209;-78
2022/06/25 01:52:52;;;;;;;7.65;6.78;;;17.80;99.90;;;;;;4992540;28;20240;-78
2022/06/25 01:55:20;;;;;;;9.27;6.70;;;17.90;99.90;;;;;;4992143;28;20205;-78
2022/06/25 01:57:49;;;;;;;9.85;6.95;;;17.90;99.90;;;;;;4992229;28;20205;-78
2022/06/25 02:00:19;;;;;;;9.18;6.43;;;18.00;99.90;;;;;;4991332;28;20623;-78
2022/06/25 02:02:46;;;;;;;11.32;7.00;;;18.00;99.90;;;;;;4992705;28;20267;-78
2022/06/25 02:05:16;;;;;;;7.38;6.63;;;18.10;99.90;;;;;;4992759;28;20221;-78
2022/06/25 02:07:43;;;;;;;9.57;7.32;;;18.00;99.90;;;;;;4992546;28;20205;-78
2022/06/25 02:10:11;;;;;;;13.05;7.40;;;18.00;99.90;;;;;;4992096;28;20205;-78
2022/06/25 02:12:38;;;;;;;9.52;7.05;;;17.90;99.90;;;;;;4992069;28;20182;-78
2022/06/25 02:15:08;;;;;;;8.88;6.90;;;17.80;99.90;;;;;;4991864;28;20651;-78
2022/06/25 02:17:35;;;;;;;10.05;6.75;;;17.80;99.90;;;;;;4992297;28;20282;-78
2022/06/25 02:20:02;;;;;;;10.82;7.32;;;17.70;99.90;;;;;;4978211;28;20697;-78
2022/06/25 02:22:29;;;;;;;10.23;7.28;;;17.70;99.90;;;;;;4987939;28;20856;-78
2022/06/25 02:24:56;;;;;;;9.13;6.97;;;17.60;99.90;;;;;;4994567;28;20201;-78
2022/06/25 02:27:23;;;;;;;8.80;7.00;;;17.60;99.90;;;;;;4996035;28;20642;-78
2022/06/25 02:29:50;;;;;;;12.07;7.75;;;17.50;99.90;;;;;;4994775;28;20205;-78
2022/06/25 02:32:19;;;;;;;12.98;7.50;;;17.50;99.90;;;;;;4995599;28;20251;-78
2022/06/25 02:34:46;;;;;;;10.30;6.85;;;17.40;99.90;;;;;;4995283;28;20550;-78
2022/06/25 02:37:13;;;;;;;9.10;6.75;;;17.50;99.90;;;;;;4995268;28;20217;-78
2022/06/25 02:39:41;;;;;;;7.65;6.45;;;17.50;99.90;;;;;;4976986;28;20271;-78
2022/06/25 02:42:08;;;;;;;12.82;7.43;;;17.30;99.90;;;;;;4995587;28;20193;-78
2022/06/25 02:44:35;;;;;;;7.53;6.80;;;17.30;99.90;;;;;;4995402;28;20271;-78
2022/06/25 02:47:02;;;;;;;11.65;7.20;;;17.30;99.90;;;;;;4994796;28;20193;-78
2022/06/25 02:49:30;;;;;;;8.20;6.93;;;17.30;99.90;;;;;;4993971;28;20205;-78
2022/06/25 02:51:57;;;;;;;7.85;6.97;;;17.20;99.90;;;;;;4995485;28;20240;-78
2022/06/25 02:54:25;;;;;;;12.77;6.82;;;17.20;99.90;;;;;;4995004;28;20209;-78
2022/06/25 02:59:41;;;;;;;9.70;7.30;;;17.30;99.90;;;;;;4994617;28;20212;-78
2022/06/25 03:02:08;;;;;;;12.95;7.53;;;17.40;99.90;;;;;;4975832;28;20206;-78
2022/06/25 03:04:36;;;;;;;7.95;7.15;;;17.50;99.90;;;;;;4984922;28;20257;-78
2022/06/25 03:07:04;;;;;;;7.97;6.78;;;17.40;99.90;;;;;;4993424;28;20578;-78
2022/06/25 03:09:31;;;;;;;13.77;7.25;;;17.40;99.90;;;;;;4980212;28;20201;-78
2022/06/25 03:11:58;;;;;;;11.23;7.53;;;17.40;99.90;;;;;;4990168;28;20546;-78
2022/06/25 03:14:25;;;;;;;9.23;6.80;;;17.40;99.90;;;;;;4988652;28;20268;-78
2022/06/25 03:16:52;;;;;;;10.23;6.43;;;17.30;99.90;;;;;;4975353;28;20202;-78
2022/06/25 03:19:19;;;;;;;8.27;6.65;;;17.30;99.90;;;;;;4974143;28;20257;-78
2022/06/25 03:21:47;;;;;;;10.60;7.20;;;17.40;99.90;;;;;;4985075;28;20201;-78
2022/06/25 03:24:14;;;;;;;10.50;7.45;;;17.30;99.90;;;;;;4994291;28;20429;-78
2022/06/25 03:26:42;;;;;;;10.95;7.35;;;17.40;99.90;;;;;;4986176;28;20656;-78
2022/06/25 03:29:10;;;;;;;11.63;7.93;;;17.40;99.90;;;;;;4974600;28;20205;-78
2022/06/25 03:31:36;;;;;;;10.82;7.28;;;17.40;99.90;;;;;;4982438;28;20209;-78
2022/06/25 03:34:04;;;;;;;15.15;7.28;;;17.50;99.90;;;;;;4976426;28;20248;-78
2022/06/25 03:36:31;;;;;;;7.95;6.68;;;17.50;99.90;;;;;;4991084;28;20209;-78
2022/06/25 03:38:59;;;;;;;9.25;6.70;;;17.60;99.90;;;;;;4994225;28;20263;-78
2022/06/25 03:41:36;;;;;;;8.85;6.88;;;17.60;99.90;;;;;;4994198;28;20201;-78
2022/06/25 03:44:04;;;;;;;13.43;7.22;;;17.40;99.90;;;;;;4994462;28;20204;-78
2022/06/25 03:46:32;;;;;;;10.07;6.88;;;17.40;99.90;;;;;;4993768;28;20189;-78
2022/06/25 03:48:59;;;;;;;10.70;6.85;;;17.50;99.90;;;;;;4994031;28;20248;-78
2022/06/25 03:51:27;;;;;;;11.48;6.78;;;17.50;99.90;;;;;;4993671;28;20209;-78
2022/06/25 03:53:54;;;;;;;10.18;7.30;;;17.50;99.90;;;;;;4993431;28;20284;-78
2022/06/25 03:56:23;;;;;;;9.68;7.80;;;17.50;99.90;;;;;;4993908;28;20307;-78
2022/06/25 03:58:51;;;;;;;10.30;8.18;;;17.50;99.90;;;;;;4993846;28;20240;-78
2022/06/25 04:01:18;;;;;;;12.95;9.13;;;17.50;99.90;;;;;;4993846;28;20201;-78
2022/06/25 04:03:45;;;;;;;9.45;7.50;;;17.50;99.90;;;;;;4994109;28;20271;-78
2022/06/25 04:06:12;;;;;;;8.70;7.47;;;17.60;99.90;;;;;;4994115;28;20741;-78
2022/06/25 04:08:39;;;;;;;8.10;7.30;;;17.60;99.90;;;;;;4993509;28;20209;-78
2022/06/25 04:11:07;;;;;;;10.48;7.75;;;17.70;99.90;;;;;;4993207;28;20287;-78
2022/06/25 04:13:36;;;;;;;9.57;7.47;;;17.50;99.90;;;;;;4994007;28;20263;-78
2022/06/25 04:16:03;;;;;;;9.65;7.38;;;17.60;99.90;;;;;;4993851;28;20241;-78
2022/06/25 04:18:31;;;;;;;12.52;7.53;;;17.60;99.90;;;;;;4993628;28;20197;-78
2022/06/25 04:20:59;;;;;;;14.35;8.05;;;17.60;99.90;;;;;;4993309;28;20216;-68
2022/06/25 04:23:26;;;;;;;10.18;7.32;;;17.70;99.90;;;;;;4991851;28;20205;-66
2022/06/25 04:25:54;;;;;;;8.20;7.30;;;17.70;99.90;;;;;;4992479;28;20244;-66
2022/06/25 04:31:06;;;;;;;14.32;9.05;;;17.80;99.90;;;;;;4991593;28;20279;-66
2022/06/25 04:33:33;;;;;;;10.35;8.80;;;17.80;99.90;;;;;;4993151;28;20208;-65
2022/06/25 04:36:00;;;;;;;11.48;8.63;;;17.90;99.90;;;;;;4992056;28;20213;-66
2022/06/25 04:38:28;;;;;;;9.80;8.90;;;18.00;99.90;;;;;;4991632;28;20247;-66
2022/06/25 04:40:54;;;;;;;11.95;8.57;;;18.10;99.90;;;;;;4990813;28;20221;-66
2022/06/25 04:43:23;;;;;;;10.88;8.63;;;18.20;99.90;;;;;;4992045;28;20251;-65
2022/06/25 04:45:50;;;;;;;11.20;8.07;;;18.40;99.90;;;;;;4982003;28;20775;-66
2022/06/25 04:48:19;;;;;;;11.40;8.77;;;18.50;99.90;;;;;;4987002;28;20274;-66
2022/06/25 04:50:47;;;;;;;8.82;7.93;;;18.60;99.90;;;;;;4991132;28;20600;-66
2022/06/25 04:53:14;;;;;;;10.70;8.45;;;18.50;99.90;;;;;;4983726;28;20201;-66
2022/06/25 04:55:41;;;;;;;12.10;8.45;;;18.50;99.90;;;;;;4991750;28;20819;-65
2022/06/25 04:58:09;;;;;;;11.27;8.23;;;18.50;99.90;;;;;;4992286;28;20201;-65
2022/06/25 05:00:36;;;;;;;12.65;8.13;;;18.40;99.90;;;;;;4990927;28;20771;-66
2022/06/25 05:03:03;;;;;;;13.23;8.98;;;18.60;99.90;;;;;;4986506;28;20553;-66
2022/06/25 05:05:31;;;;;;;10.23;8.23;;;18.60;99.90;;;;;;4990722;28;20236;-66
2022/06/25 05:07:58;;;;;;;10.05;8.48;;;18.60;99.90;;;;;;4990698;28;20213;-66
2022/06/25 05:10:26;;;;;;;11.73;8.13;;;18.70;99.90;;;;;;4985218;28;20197;-66
2022/06/25 05:15:37;;;;;;;12.95;7.85;;;18.90;99.90;;;;;;4986415;28;20232;-65
2022/06/25 05:18:04;;;;;;;9.48;7.80;;;19.50;99.90;;;;;;4991830;28;20212;-65
2022/06/25 05:20:33;;;;;;;10.13;7.38;;;20.00;99.90;;;;;;4990959;28;20267;-66
2022/06/25 05:23:00;;;;;;;11.85;6.97;;;19.80;99.90;;;;;;4991974;28;20255;-65
2022/06/25 05:25:28;;;;;;;10.70;6.82;;;19.70;99.90;;;;;;4974944;28;20236;-66
2022/06/25 05:27:55;;;;;;;8.05;6.95;;;20.30;99.90;;;;;;4992483;28;20205;-66
2022/06/25 05:30:21;;;;;;;5.97;5.40;;;21.80;99.90;;;;;;4990716;28;20197;-66
2022/06/25 05:32:49;;;;;;;6.68;5.80;;;21.20;99.90;;;;;;4991125;28;20236;-66
2022/06/25 05:35:16;;;;;;;7.25;5.47;;;20.50;99.90;;;;;;4974500;28;20223;-66
2022/06/25 05:37:44;;;;;;;8.52;5.53;;;20.30;99.90;;;;;;4975856;28;20251;-66
2022/06/25 05:40:12;;;;;;;6.00;5.43;;;20.60;99.90;;;;;;4985644;28;20205;-65
2022/06/25 05:42:39;;;;;;;6.55;5.18;;;20.90;99.90;;;;;;4990422;28;20201;-66
2022/06/25 05:45:08;;;;;;;5.50;5.00;;;20.80;99.90;;;;;;4991397;28;20256;-65
2022/06/25 05:47:35;;;;;;;4.80;4.40;;;22.40;99.90;;;;;;4983885;28;20200;-66
2022/06/25 05:50:02;;;;;;;6.05;4.72;;;22.00;99.90;;;;;;4991616;28;20545;-66
2022/06/25 05:52:29;;;;;;;5.95;4.38;;;21.60;99.90;;;;;;4987361;28;20201;-66
2022/06/25 05:54:58;;;;;;;7.25;4.60;;;21.70;99.90;;;;;;4985129;28;20274;-65
2022/06/25 05:57:25;;;;;;;5.35;4.38;;;21.90;99.90;;;;;;4992987;28;20239;-66
2022/06/25 05:59:52;;;;;;;5.00;4.40;;;21.60;99.90;;;;;;4975897;28;20209;-66
2022/06/25 06:02:19;;;;;;;4.75;3.75;;;20.90;99.90;;;;;;4991564;28;20201;-66
2022/06/25 06:04:46;;;;;;;4.63;4.13;;;20.90;99.90;;;;;;4995290;28;20221;-65
2022/06/25 06:07:13;;;;;;;5.65;4.00;;;21.00;99.90;;;;;;4987299;28;20211;-66
2022/06/25 06:09:40;;;;;;;4.13;3.72;;;20.80;99.90;;;;;;4989403;28;20689;-66
2022/06/25 06:12:09;;;;;;;5.55;4.10;;;20.80;99.90;;;;;;4984213;28;20248;-66
2022/06/25 06:14:36;;;;;;;5.28;3.53;;;20.70;99.90;;;;;;4992987;28;20209;-66
2022/06/25 06:17:03;;;;;;;4.50;3.60;;;20.90;99.90;;;;;;4991856;28;20626;-66
2022/06/25 06:19:30;;;;;;;4.93;3.97;;;21.00;99.90;;;;;;4977541;28;20209;-66
2022/06/25 06:21:57;;;;;;;4.20;3.75;;;21.20;99.90;;;;;;4984954;28;20279;-66
2022/06/25 06:24:24;;;;;;;4.43;3.58;;;21.20;99.90;;;;;;4993396;28;20848;-66
2022/06/25 06:26:51;;;;;;;5.90;3.65;;;21.20;99.90;;;;;;4992912;28;20243;-66
2022/06/25 06:29:19;;;;;;;4.10;3.70;;;21.30;99.90;;;;;;4991043;28;20216;-66
2022/06/25 06:31:46;;;;;;;3.92;3.42;;;21.20;99.90;;;;;;4992455;28;20303;-67
2022/06/25 06:34:13;;;;;;;4.10;3.70;;;21.00;99.90;;;;;;4984743;28;20252;-65
2022/06/25 06:36:40;;;;;;;4.35;3.95;;;21.00;99.90;;;;;;4992720;28;20288;-66
2022/06/25 06:39:07;;;;;;;4.65;4.03;;;20.80;99.90;;;;;;4993127;28;20324;-66
2022/06/25 06:41:35;;;;;;;7.97;4.00;;;20.90;99.90;;;;;;4993958;28;20232;-66
2022/06/25 06:44:02;;;;;;;4.15;3.40;;;20.90;99.90;;;;;;4979582;28;20264;-66
2022/06/25 06:46:30;;;;;;;4.38;3.90;;;20.90;99.90;;;;;;4988906;28;20233;-66
2022/06/25 06:48:57;;;;;;;3.65;3.20;;;21.00;99.90;;;;;;4995327;28;20919;-66
2022/06/25 06:51:24;;;;;;;4.63;3.60;;;21.00;99.90;;;;;;4993883;28;20224;-66
2022/06/25 06:53:51;;;;;;;6.70;3.80;;;20.90;99.90;;;;;;4995239;28;20201;-66
2022/06/25 06:56:18;;;;;;;4.10;3.70;;;21.10;99.90;;;;;;4993322;28;20228;-66
2022/06/25 06:58:45;;;;;;;5.72;3.03;;;21.00;99.90;;;;;;4989076;28;20193;-66
2022/06/25 07:01:13;;;;;;;4.60;2.92;;;21.00;99.90;;;;;;4983667;28;20202;-66
2022/06/25 07:03:42;;;;;;;4.00;3.05;;;21.10;99.90;;;;;;4992953;28;20291;-66
2022/06/25 07:06:09;;;;;;;3.42;2.92;;;21.10;99.90;;;;;;4991680;28;20267;-66
2022/06/25 07:08:36;;;;;;;5.25;3.08;;;21.20;99.90;;;;;;4987171;28;20707;-66
2022/06/25 07:11:27;;;;;;;17.42;8.18;;;21.20;99.90;;;;;;4983843;28;20268;-66
2022/06/25 07:13:50;;;;;;;5.13;2.83;;;21.30;99.90;;;;;;4990476;28;20209;-66
2022/06/25 07:16:17;;;;;;;4.30;2.75;;;21.50;99.90;;;;;;4983757;28;20275;-66
2022/06/25 07:18:46;;;;;;;4.90;2.90;;;21.70;99.90;;;;;;4993721;28;20240;-66
2022/06/25 07:21:13;;;;;;;4.38;2.80;;;21.70;99.90;;;;;;4984197;28;20607;-66
2022/06/25 07:23:40;;;;;;;4.63;3.00;;;21.70;99.90;;;;;;4972946;28;20299;-66
2022/06/25 07:26:07;;;;;;;4.32;2.90;;;21.80;99.90;;;;;;4984095;28;20667;-66
2022/06/25 07:28:34;;;;;;;3.72;2.80;;;21.90;99.90;;;;;;4976496;28;20648;-66
2022/06/25 07:31:01;;;;;;;3.40;2.70;;;22.00;99.90;;;;;;4983922;28;20220;-66
2022/06/25 07:33:29;;;;;;;2.67;2.47;;;22.10;99.90;;;;;;4994304;28;20267;-66
2022/06/25 07:35:58;;;;;;;3.70;2.50;;;22.00;99.90;;;;;;4994052;28;20214;-76
2022/06/25 07:38:25;;;;;;;4.78;2.50;;;22.00;99.90;;;;;;4993127;28;20259;-66
2022/06/25 07:40:52;;;;;;;3.20;2.70;;;22.10;99.90;;;;;;4993276;28;20808;-66
2022/06/25 07:43:19;;;;;;;3.72;2.65;;;22.20;99.90;;;;;;4992970;28;20256;-66
2022/06/25 07:45:46;;;;;;;3.92;2.75;;;22.20;99.90;;;;;;4993091;28;20260;-66
2022/06/25 07:48:13;;;;;;;3.72;2.70;;;22.20;99.90;;;;;;4993535;28;20244;-66
2022/06/25 07:53:27;;;;;;;2.60;2.40;;;22.20;99.90;;;;;;4992232;28;20576;-66
2022/06/25 07:55:54;;;;;;;3.00;2.67;;;22.20;99.90;;;;;;4991524;28;20233;-66
2022/06/25 07:58:23;;;;;;;5.63;3.10;;;22.40;99.90;;;;;;4992743;28;20315;-66
2022/06/25 08:00:50;;;;;;;5.22;2.83;;;22.50;99.90;;;;;;4986123;28;20202;-66
2022/06/25 08:03:18;;;;;;;3.00;2.60;;;22.70;99.90;;;;;;4985774;28;20552;-66
2022/06/25 08:05:46;;;;;;;3.67;2.58;;;22.70;99.90;;;;;;4984780;28;20905;-66
2022/06/25 08:08:13;;;;;;;6.15;2.50;;;22.80;99.90;;;;;;4981334;28;20216;-66
2022/06/25 08:10:41;;;;;;;3.17;2.40;;;23.00;99.90;;;;;;4992038;28;20288;-66
2022/06/25 08:13:08;;;;;;;3.38;2.55;;;23.00;99.90;;;;;;4992642;28;20292;-66
2022/06/25 08:15:35;;;;;;;2.72;2.53;;;22.90;99.90;;;;;;4992876;28;20906;-66
2022/06/25 08:18:03;;;;;;;4.63;2.70;;;22.80;99.90;;;;;;4993053;28;20580;-66
2022/06/25 08:20:30;;;;;;;3.40;2.25;;;23.10;99.90;;;;;;4980383;28;20202;-66
2022/06/25 08:22:57;;;;;;;2.85;2.30;;;23.10;99.90;;;;;;4973802;28;20265;-66
2022/06/25 08:25:24;;;;;;;3.53;2.75;;;23.00;99.90;;;;;;4979083;28;20225;-66
2022/06/25 08:27:54;;;;;;;13.05;9.75;;;23.20;99.90;;;;;;4993287;28;20240;-66
2022/06/25 08:30:22;;;;;;;4.55;3.10;;;23.30;99.90;;;;;;4991457;28;20766;-66
2022/06/25 08:32:49;;;;;;;3.20;2.05;;;23.40;99.90;;;;;;4993228;28;20644;-66
2022/06/25 08:35:17;;;;;;;3.00;1.65;;;23.50;99.90;;;;;;4992250;28;20237;-66
2022/06/25 08:37:45;;;;;;;2.38;1.83;;;23.40;96.30;;;;;;4992956;28;20233;-66
2022/06/25 08:40:13;;;;;;;3.35;2.03;;;23.40;96.80;;;;;;4991555;28;20738;-66
2022/06/25 08:42:40;;;;;;;2.40;2.20;;;23.40;96.10;;;;;;4993144;28;20240;-67
2022/06/25 08:45:10;;;;;;;2.60;2.30;;;23.50;99.90;;;;;;4992078;28;20228;-67
2022/06/25 08:47:44;;;;;;;2.42;2.10;;;23.60;99.90;;;;;;4992919;28;20236;-66
2022/06/25 08:50:14;;;;;;;3.00;2.17;;;23.80;99.90;;;;;;4974459;28;20209;-66
2022/06/25 08:52:45;;;;;;;3.50;2.47;;;24.10;98.80;;;;;;4992033;28;20208;-66
2022/06/25 08:55:20;;;;;;;3.15;2.30;;;24.00;95.80;;;;;;4991534;28;20205;-66
2022/06/25 08:57:47;;;;;;;2.58;2.00;;;24.70;94.60;;;;;;4956963;28;20263;-66
2022/06/25 09:00:16;;;;;;;2.65;2.20;;;24.70;93.40;;;;;;4972846;28;20618;-66
2022/06/25 09:02:43;;;;;;;2.20;2.00;;;24.40;94.00;;;;;;4988728;28;20201;-66
2022/06/25 09:05:11;;;;;;;2.65;2.20;;;24.10;94.40;;;;;;4992719;28;20327;-66
2022/06/25 09:07:38;;;;;;;2.35;2.00;;;24.20;94.90;;;;;;4987747;28;20209;-66
2022/06/25 09:10:05;;;;;;;2.08;1.98;;;24.10;91.90;;;;;;4972730;28;20695;-66
2022/06/25 09:12:35;;;;;;;2.08;1.98;;;24.00;92.20;;;;;;4985079;28;20264;-66
2022/06/25 09:15:02;;;;;;;3.72;1.70;;;24.00;90.60;;;;;;4972727;28;20201;-66
2022/06/25 09:17:30;;;;;;;4.55;1.95;;;23.90;92.30;;;;;;4989124;28;20636;-66
2022/06/25 09:19:58;;;;;;;1.98;1.80;;;24.40;93.00;;;;;;4991002;28;20224;-66
2022/06/25 09:22:26;;;;;;;4.57;2.08;;;25.20;83.60;;;;;;4991724;28;20204;-66
2022/06/25 09:24:57;;;;;;;2.53;1.70;;;25.80;80.90;;;;;;4991947;28;20739;-66
2022/06/25 09:27:36;;;;;;;3.08;1.90;;;26.30;72.40;;;;;;4992948;28;20208;-66
2022/06/25 09:30:12;;;;;;;2.42;2.00;;;26.50;69.00;;;;;;4990169;28;20208;-66
2022/06/25 09:32:45;;;;;;;2.20;2.00;;;26.10;64.30;;;;;;4992892;28;20215;-66
2022/06/25 09:35:12;;;;;;;2.25;1.98;;;26.90;65.00;;;;;;4996365;28;20200;-66
2022/06/25 09:37:40;;;;;;;1.85;1.75;;;27.10;63.50;;;;;;4996263;28;20209;-66
2022/06/25 09:40:10;;;;;;;2.80;1.75;;;27.50;61.10;;;;;;4995074;28;20607;-66
2022/06/25 09:42:38;;;;;;;1.50;1.40;;;27.50;55.10;;;;;;4995382;28;20280;-66
2022/06/25 09:45:11;;;;;;;1.70;1.60;;;27.40;50.90;;;;;;4995831;28;20203;-66
2022/06/25 09:47:40;;;;;;;2.28;1.55;;;27.50;51.30;;;;;;4995434;28;20288;-66
2022/06/25 09:50:13;;;;;;;1.67;1.58;;;28.20;52.30;;;;;;4983906;28;20210;-66
2022/06/25 09:52:52;;;;;;;1.63;1.52;;;28.50;52.40;;;;;;4994772;28;20251;-66
2022/06/25 09:55:20;;;;;;;2.50;1.75;;;28.00;49.60;;;;;;4976470;28;20208;-66
2022/06/25 09:57:48;;;;;;;1.77;1.60;;;28.60;49.70;;;;;;4996080;28;20217;-66
2022/06/25 10:00:17;;;;;;;3.67;1.30;;;28.70;47.20;;;;;;4994485;28;20243;-66
2022/06/25 10:02:48;;;;;;;1.35;1.25;;;28.50;43.20;;;;;;4996480;28;20211;-66
2022/06/25 10:05:18;;;;;;;1.45;1.38;;;28.60;42.70;;;;;;4996159;28;20683;-66
2022/06/25 10:08:04;;;;;;;3.15;1.50;;;28.80;43.40;;;;;;4991150;28;20205;-66
2022/06/25 10:10:34;;;;;;;1.38;1.25;;;28.80;42.90;;;;;;4991673;28;20209;-66
2022/06/25 10:13:03;;;;;;;2.95;2.10;;;28.40;45.90;;;;;;4975842;28;20325;-66
2022/06/25 10:15:31;;;;;;;4.30;1.95;;;28.70;44.40;;;;;;4995944;28;20594;-66
2022/06/25 10:18:01;;;;;;;2.65;1.70;;;29.30;43.70;;;;;;4994843;28;20205;-66
2022/06/25 10:20:31;;;;;;;3.05;1.75;;;29.30;40.40;;;;;;4995249;28;20201;-66
2022/06/25 10:23:00;;;;;;;1.83;1.60;;;29.20;39.90;;;;;;4994923;28;20213;-66
2022/06/25 10:25:28;;;;;;;1.75;1.65;;;28.70;41.00;;;;;;4991778;28;20589;-66
2022/06/25 10:28:06;;;;;;;1.70;1.60;;;29.70;38.10;;;;;;4978514;28;20281;-66
2022/06/25 10:30:43;;;;;;;1.88;1.77;;;29.70;38.80;;;;;;4981880;28;20281;-66
2022/06/25 10:33:10;;;;;;;1.80;1.27;;;29.40;38.30;;;;;;4978246;28;20566;-66
2022/06/25 10:35:40;;;;;;;1.60;1.50;;;29.60;36.30;;;;;;4995218;28;20221;-66
2022/06/25 10:38:09;;;;;;;2.72;1.52;;;29.60;36.80;;;;;;4995635;28;20292;-66
2022/06/25 10:40:48;;;;;;;1.52;1.38;;;30.20;32.60;;;;;;4993630;28;20220;-66
2022/06/25 10:43:34;;;;;;;3.38;1.90;;;30.40;35.80;;;;;;4994347;28;20243;-66
2022/06/25 10:46:19;;;;;;;3.72;1.50;;;30.10;34.20;;;;;;4994005;28;20224;-69
2022/06/25 10:48:51;;;;;;;1.83;1.58;;;30.50;35.00;;;;;;4994091;28;20197;-70
2022/06/25 10:51:30;;;;;;;2.08;1.85;;;30.40;31.40;;;;;;4993086;28;20197;-69
2022/06/25 10:53:57;;;;;;;3.70;1.83;;;30.40;30.30;;;;;;4994686;28;20562;-69
2022/06/25 10:56:25;;;;;;;2.08;1.40;;;29.00;32.70;;;;;;4994654;28;20308;-69
2022/06/25 10:58:53;;;;;;;3.30;1.70;;;29.20;35.10;;;;;;4994294;28;20300;-69
2022/06/25 11:01:22;;;;;;;2.28;1.63;;;29.90;34.30;;;;;;4993520;28;20282;-69
2022/06/25 11:03:53;;;;;;;1.75;1.65;;;30.30;32.90;;;;;;4994199;28;20216;-69
2022/06/25 11:06:23;;;;;;;1.42;1.33;;;30.30;33.30;;;;;;4988314;28;20268;-69
2022/06/25 11:08:53;;;;;;;1.55;1.48;;;29.60;30.20;;;;;;4991696;28;20640;-69
2022/06/25 11:11:28;;;;;;;2.90;1.77;;;30.00;30.60;;;;;;4993881;28;20271;-69
2022/06/25 11:13:56;;;;;;;1.63;1.42;;;29.80;29.50;;;;;;4984305;28;20244;-69
2022/06/25 11:16:23;;;;;;;2.00;1.50;;;29.20;32.60;;;;;;4974758;28;20268;-69
2022/06/25 11:18:53;;;;;;;2.00;1.27;;;29.80;31.60;;;;;;4979402;28;20229;-69
2022/06/25 11:21:34;;;;;;;2.22;1.67;;;29.60;29.90;;;;;;4977883;28;20304;-69
2022/06/25 11:24:15;;;;;;;1.40;1.30;;;30.20;29.80;;;;;;4977407;28;20698;-69
2022/06/25 11:29:30;;;;;;;2.53;1.60;;;29.60;31.30;;;;;;4993760;28;20556;-69
2022/06/25 11:31:58;;;;;;;3.20;1.90;;;30.30;32.30;;;;;;4993799;28;20212;-69
2022/06/25 11:34:26;;;;;;;2.20;1.40;;;29.90;33.30;;;;;;4994433;28;20236;-69
2022/06/25 11:37:05;;;;;;;2.33;1.50;;;30.70;31.40;;;;;;4994421;28;20248;-69
2022/06/25 11:39:34;;;;;;;1.60;1.50;;;30.50;29.30;;;;;;4975692;28;20205;-69
2022/06/25 11:42:04;;;;;;;1.60;1.50;;;30.70;30.30;;;;;;4987338;28;20264;-69
2022/06/25 11:44:40;;;;;;;1.70;1.60;;;30.80;26.80;;;;;;4993575;28;20205;-69
2022/06/25 11:47:07;;;;;;;1.50;1.40;;;30.20;27.30;;;;;;4993075;28;20264;-69
2022/06/25 11:49:37;;;;;;;1.35;1.35;;;29.90;27.60;;;;;;4992773;28;20643;-69
2022/06/25 11:52:06;;;;;;;1.77;1.67;;;29.10;33.40;;;;;;4993459;28;20706;-69
2022/06/25 11:54:36;;;;;;;2.40;1.77;;;28.80;34.70;;;;;;4993884;28;20224;-69
2022/06/25 11:57:05;;;;;;;6.70;1.90;;;29.20;31.20;;;;;;4992619;28;20275;-69
2022/06/25 11:59:34;;;;;;;1.60;1.50;;;29.50;31.80;;;;;;4992304;28;20217;-69
2022/06/25 12:02:03;;;;;;;2.08;1.63;;;30.90;30.70;;;;;;4975023;28;20206;-69
2022/06/25 12:04:31;;;;;;;2.33;1.42;;;30.60;29.60;;;;;;4981557;28;20747;-69
2022/06/25 12:06:59;;;;;;;2.42;1.55;;;30.70;28.70;;;;;;4993395;28;20617;-69
2022/06/25 12:09:27;;;;;;;2.95;1.50;;;31.20;26.90;;;;;;4992531;28;20267;-69
2022/06/25 12:11:57;;;;;;;2.08;1.40;;;31.00;27.20;;;;;;4992406;28;20287;-69
2022/06/25 12:14:28;;;;;;;1.30;1.30;;;31.20;25.20;;;;;;4993476;28;20255;-69
2022/06/25 12:16:56;;;;;;;2.80;1.52;;;30.40;27.70;;;;;;4994186;28;20215;-69
2022/06/25 12:19:23;;;;;;;2.70;1.38;;;30.80;23.50;;;;;;4991554;28;20256;-69
2022/06/25 12:21:50;;;;;;;2.38;1.50;;;30.90;22.80;;;;;;4992679;28;20280;-69
2022/06/25 12:24:20;;;;;;;1.88;1.75;;;31.00;24.40;;;;;;4993096;28;20293;-69
2022/06/25 12:26:55;;;;;;;1.27;1.20;;;30.70;25.80;;;;;;4993551;28;20227;-69
2022/06/25 12:29:25;;;;;;;2.10;1.90;;;30.90;24.70;;;;;;4992219;28;20275;-69
2022/06/25 12:31:58;;;;;;;1.52;1.45;;;30.40;24.40;;;;;;4993291;28;20225;-69
2022/06/25 12:34:26;;;;;;;1.70;1.60;;;29.60;26.10;;;;;;4993065;28;20545;-69
2022/06/25 12:36:54;;;;;;;2.72;1.90;;;29.90;25.90;;;;;;4982735;28;20245;-69
2022/06/25 12:39:35;;;;;;;3.75;1.50;;;29.10;28.20;;;;;;4972395;28;20277;-69
2022/06/25 12:42:06;;;;;;;1.60;1.50;;;29.60;27.80;;;;;;4989093;28;20205;-69
2022/06/25 12:44:35;;;;;;;2.58;1.42;;;30.60;26.40;;;;;;4992843;28;20237;-69
2022/06/25 12:47:05;;;;;;;2.13;1.60;;;30.70;26.80;;;;;;4992936;28;20606;-69
2022/06/25 12:49:47;;;;;;;1.83;1.50;;;30.30;26.30;;;;;;4992125;28;20205;-69
2022/06/25 12:52:17;;;;;;;2.47;1.70;;;29.60;25.90;;;;;;4991609;28;20209;-69
2022/06/25 12:54:48;;;;;;;2.38;1.67;;;29.00;29.90;;;;;;4991751;28;20652;-69
2022/06/25 12:57:25;;;;;;;2.05;1.80;;;29.10;28.60;;;;;;4989820;28;20738;-69
2022/06/25 13:00:01;;;;;;;3.05;1.83;;;29.00;28.50;;;;;;4986565;28;20568;-69
2022/06/25 13:02:28;;;;;;;1.83;1.67;;;28.70;29.30;;;;;;4987378;28;20209;-69
2022/06/25 13:04:55;;;;;;;2.00;1.65;;;29.10;29.70;;;;;;4989369;28;20223;-69
2022/06/25 13:07:22;;;;;;;6.18;1.88;;;29.00;29.90;;;;;;4986398;28;20283;-69
2022/06/25 13:09:50;;;;;;;1.90;1.80;;;28.90;30.00;;;;;;4985786;28;20208;-69